Rochester, Illinois
Current Conditions -  °F | °C
As of 12:52 AM on Wednesday 26 Nov 2014 (Local Time) from KSPI Reporting Station
Clear Clear  
Wind Chill: -7°   Ceiling: Unl
Heat Index: -4°   Visibility: 10mi
Dew Point: -6°   Wind: 5mph
Humidity: 88%   Direction: 130°SE
Pressure: 30.14"   Gusts: NA
Location:  39.75°N, 89.53°W
Report Text: KSPI 260652Z AUTO 13004KT 10SM CLR M04/M06 A3014 RMK AO2 SLP212 T10391056
Loading
Personal Weather Stations






























Interactive Weather Map New forecast layout! Learn more

10-Day Weather Forecast

Advertisements
Track Severe Weather on mobile